createdAt,value
2022-09-03T00:01:20.342Z,1.20
2022-09-03T00:03:56.409Z,1.03
2022-09-03T00:06:40.081Z,1.17
2022-09-03T00:09:18.758Z,1.00
2022-09-03T00:11:51.045Z,0.80
2022-09-03T00:14:27.182Z,1.00
2022-09-03T00:17:03.333Z,0.80
2022-09-03T00:19:40.881Z,0.90
2022-09-03T00:22:19.166Z,1.00
2022-09-03T00:24:48.999Z,0.90
2022-09-03T00:27:24.196Z,0.97
2022-09-03T00:29:58.154Z,1.00
2022-09-03T00:32:34.695Z,1.00
2022-09-03T00:35:06.699Z,0.90
2022-09-03T00:37:38.146Z,0.90
2022-09-03T00:40:16.419Z,1.00
2022-09-03T00:43:02.949Z,0.90
2022-09-03T00:45:39.306Z,1.07
2022-09-03T00:48:27.767Z,1.00
2022-09-03T00:51:17.482Z,1.07
2022-09-03T00:54:03.991Z,1.10
2022-09-03T00:56:45.889Z,0.80
2022-09-03T00:59:15.885Z,0.87
2022-09-03T01:02:15.066Z,1.00
2022-09-03T01:04:52.916Z,1.00
2022-09-03T01:07:32.572Z,0.90
2022-09-03T01:10:34.580Z,0.90
2022-09-03T01:13:11.206Z,1.00
2022-09-03T01:15:50.318Z,0.70
2022-09-03T01:18:38.333Z,0.93
2022-09-03T01:21:28.247Z,0.90
2022-09-03T01:24:07.589Z,0.80
2022-09-03T01:27:05.764Z,0.90
2022-09-03T01:29:58.576Z,0.80
2022-09-03T01:32:50.311Z,0.97
2022-09-03T01:35:45.583Z,0.90
2022-09-03T01:38:43.628Z,0.60
2022-09-03T01:41:48.180Z,1.00
2022-09-03T01:44:52.936Z,0.80
2022-09-03T01:47:32.173Z,0.70
2022-09-03T01:50:13.378Z,1.10
2022-09-03T01:52:50.052Z,0.80
2022-09-03T01:55:34.153Z,0.80
2022-09-03T01:58:11.392Z,1.03
2022-09-03T02:00:43.864Z,0.80
2022-09-03T02:03:12.869Z,0.80
2022-09-03T02:05:39.889Z,0.87
2022-09-03T02:08:11.612Z,0.70
2022-09-03T02:10:43.801Z,0.70
2022-09-03T02:13:20.064Z,0.63
2022-09-03T02:15:50.764Z,0.67
2022-09-03T02:18:29.556Z,0.90
2022-09-03T02:20:57.601Z,0.87
2022-09-03T02:23:28.460Z,0.90
2022-09-03T02:26:02.133Z,0.90
2022-09-03T02:28:32.375Z,0.90
2022-09-03T02:30:59.680Z,0.80
2022-09-03T02:33:27.656Z,0.80
2022-09-03T02:35:55.370Z,0.97
2022-09-03T02:38:28.521Z,0.83
2022-09-03T02:40:55.949Z,0.60
2022-09-03T02:43:41.793Z,0.70
2022-09-03T02:46:14.110Z,0.70
2022-09-03T02:48:41.123Z,0.57
2022-09-03T02:51:14.146Z,0.70
2022-09-03T02:53:43.289Z,0.77
2022-09-03T02:56:17.649Z,0.80
2022-09-03T02:58:45.216Z,0.60
2022-09-03T03:01:18.067Z,0.70
2022-09-03T03:03:52.715Z,0.90
2022-09-03T03:06:20.997Z,0.67
2022-09-03T03:08:49.947Z,0.60
2022-09-03T03:11:18.525Z,0.60
2022-09-03T03:13:47.034Z,0.50
2022-09-03T03:16:15.971Z,0.50
2022-09-03T03:18:43.283Z,0.70
2022-09-03T03:21:13.318Z,0.50
2022-09-03T03:23:40.668Z,0.90
2022-09-03T03:26:10.610Z,0.50
2022-09-03T03:28:38.014Z,0.57
2022-09-03T03:31:22.446Z,0.37
2022-09-03T03:33:57.523Z,0.50
2022-09-03T03:36:26.589Z,0.53
2022-09-03T03:38:55.466Z,0.50
2022-09-03T03:41:33.896Z,0.60
2022-09-03T03:44:03.737Z,0.40
2022-09-03T03:46:33.864Z,0.60
2022-09-03T03:49:01.414Z,0.50
2022-09-03T03:51:29.013Z,0.30
2022-09-03T03:54:01.091Z,0.40
2022-09-03T03:56:31.556Z,0.60
2022-09-03T03:58:59.795Z,0.50
2022-09-03T04:01:28.252Z,0.60
2022-09-03T04:03:56.328Z,0.60
2022-09-03T04:06:23.681Z,0.60
2022-09-03T04:08:51.033Z,0.33
2022-09-03T04:11:20.511Z,0.60
2022-09-03T04:13:48.203Z,0.40
2022-09-03T04:16:21.060Z,0.60
2022-09-03T04:18:49.659Z,0.50
2022-09-03T04:21:23.145Z,0.50
2022-09-03T04:23:51.711Z,0.30
2022-09-03T04:26:22.177Z,0.40
2022-09-03T04:28:49.173Z,0.50
2022-09-03T04:31:19.402Z,0.47
2022-09-03T04:33:46.905Z,0.60
2022-09-03T04:36:19.543Z,0.60
2022-09-03T04:38:48.666Z,0.50
2022-09-03T04:41:20.964Z,0.37
2022-09-03T04:43:51.573Z,0.40
2022-09-03T04:46:20.828Z,0.40
2022-09-03T04:48:53.449Z,0.50
2022-09-03T04:51:27.329Z,0.50
2022-09-03T04:53:59.793Z,0.40
2022-09-03T04:56:35.518Z,0.67
2022-09-03T04:59:05.224Z,0.50
2022-09-03T05:01:34.547Z,0.30
2022-09-03T05:04:01.775Z,0.30
2022-09-03T05:06:31.003Z,0.60
2022-09-03T05:08:58.467Z,0.50
2022-09-03T05:11:27.685Z,0.50
2022-09-03T05:13:57.272Z,0.40
2022-09-03T05:16:25.514Z,0.30
2022-09-03T05:18:54.337Z,0.30
2022-09-03T05:21:22.324Z,0.23
2022-09-03T05:23:50.961Z,0.33
2022-09-03T05:26:23.385Z,0.40
2022-09-03T05:28:57.871Z,0.30
2022-09-03T05:31:26.864Z,0.40
2022-09-03T05:33:57.852Z,0.40
2022-09-03T05:36:27.325Z,0.30
2022-09-03T05:38:54.830Z,0.40
2022-09-03T05:41:23.244Z,0.20
2022-09-03T05:43:53.646Z,0.30
2022-09-03T05:46:21.060Z,0.20
2022-09-03T05:48:47.974Z,0.20
2022-09-03T05:51:17.982Z,0.23
2022-09-03T05:53:48.094Z,0.30
2022-09-03T05:56:21.116Z,0.33
2022-09-03T05:59:01.985Z,0.30
2022-09-03T06:01:56.766Z,0.27
2022-09-03T06:04:46.480Z,0.30
2022-09-03T06:07:33.791Z,0.30
2022-09-03T06:10:25.443Z,0.40
2022-09-03T06:12:54.007Z,0.30
2022-09-03T06:15:21.069Z,0.30
2022-09-03T06:17:47.937Z,0.20
2022-09-03T06:20:15.058Z,0.20
2022-09-03T06:22:42.172Z,0.20
2022-09-03T06:25:09.952Z,0.20
2022-09-03T06:27:36.920Z,0.20
2022-09-03T06:30:06.299Z,0.20
2022-09-03T06:32:53.255Z,0.30
2022-09-03T06:35:42.824Z,0.40
2022-09-03T06:38:30.646Z,0.10
2022-09-03T06:41:24.051Z,0.10
2022-09-03T06:44:13.489Z,0.10
2022-09-03T06:47:01.245Z,0.30
2022-09-03T06:49:48.225Z,0.20
2022-09-03T06:52:35.141Z,0.20
2022-09-03T06:55:22.177Z,0.30
2022-09-03T06:58:09.345Z,0.20
2022-09-03T07:00:56.410Z,0.20
2022-09-03T07:03:43.526Z,0.10
2022-09-03T07:06:34.101Z,0.20
2022-09-03T07:09:21.061Z,0.30
2022-09-03T07:12:08.137Z,0.10
2022-09-03T07:14:55.188Z,0.30
2022-09-03T07:17:42.355Z,0.10
2022-09-03T07:20:29.742Z,0.10
2022-09-03T07:23:16.812Z,0.20
2022-09-03T07:26:03.963Z,0.20
2022-09-03T07:28:54.489Z,0.20
2022-09-03T07:31:53.140Z,0.20
2022-09-03T07:34:41.593Z,0.20
2022-09-03T07:37:28.578Z,0.20
2022-09-03T07:40:15.553Z,0.10
2022-09-03T07:43:02.610Z,0.17
2022-09-03T07:45:49.841Z,0.13
2022-09-03T07:48:37.638Z,0.30
2022-09-03T07:51:24.824Z,0.20
2022-09-03T07:54:13.222Z,0.10
2022-09-03T07:57:00.935Z,0.30
2022-09-03T07:59:48.086Z,0.13
2022-09-03T08:02:35.314Z,0.20
2022-09-03T08:05:22.310Z,0.20
2022-09-03T08:08:09.352Z,0.20
2022-09-03T08:10:57.193Z,0.13
2022-09-03T08:13:44.236Z,0.30
2022-09-03T08:16:37.127Z,0.30
2022-09-03T08:19:24.949Z,0.10
2022-09-03T08:22:11.997Z,0.30
2022-09-03T08:24:59.144Z,0.20
2022-09-03T08:27:46.262Z,0.10
2022-09-03T08:30:33.276Z,0.20
2022-09-03T08:33:21.942Z,0.10
2022-09-03T08:36:14.995Z,0.20
2022-09-03T08:39:03.536Z,0.10
2022-09-03T08:41:56.563Z,0.20
2022-09-03T08:44:48.803Z,0.20
2022-09-03T08:48:25.134Z,0.17
2022-09-03T08:51:16.689Z,0.10
2022-09-03T08:54:09.471Z,0.10
2022-09-03T08:56:40.053Z,0.20
2022-09-03T08:59:07.027Z,0.30
2022-09-03T09:01:39.947Z,0.10
2022-09-03T09:04:32.388Z,0.30
2022-09-03T09:07:15.549Z,0.20
2022-09-03T09:09:51.274Z,0.20
2022-09-03T09:12:29.352Z,0.20
2022-09-03T09:15:12.881Z,0.20
2022-09-03T09:17:45.512Z,0.10
2022-09-03T09:20:31.269Z,0.30
2022-09-03T09:23:05.940Z,0.43
2022-09-03T09:25:39.729Z,0.10
2022-09-03T09:28:13.178Z,0.20
2022-09-03T09:30:40.785Z,0.17
2022-09-03T09:33:07.687Z,0.20
2022-09-03T09:35:35.232Z,0.10
2022-09-03T09:38:02.392Z,0.10
2022-09-03T09:40:35.924Z,0.20
2022-09-03T09:43:22.221Z,0.17
2022-09-03T09:45:51.969Z,0.20
2022-09-03T09:48:38.061Z,0.20
2022-09-03T09:51:10.442Z,0.17
2022-09-03T09:53:38.050Z,0.30
2022-09-03T09:56:05.766Z,0.27
2022-09-03T09:58:34.835Z,0.17
2022-09-03T10:01:15.318Z,0.13
2022-09-03T10:03:55.425Z,0.10
2022-09-03T10:06:50.490Z,0.17
2022-09-03T10:09:41.096Z,0.10
2022-09-03T10:12:51.496Z,0.20
2022-09-03T10:16:10.411Z,0.30
2022-09-03T10:19:04.447Z,0.17
2022-09-03T10:21:57.415Z,0.20
2022-09-03T10:24:53.529Z,0.10
2022-09-03T10:27:41.147Z,0.20
2022-09-03T10:30:28.592Z,0.20
2022-09-03T10:33:18.173Z,0.20
2022-09-03T10:36:12.932Z,0.10
2022-09-03T10:39:02.689Z,0.17
2022-09-03T10:42:08.875Z,0.10
2022-09-03T10:45:13.115Z,0.10
2022-09-03T10:48:37.414Z,0.30
2022-09-03T10:51:40.404Z,0.17
2022-09-03T10:55:12.929Z,0.20
2022-09-03T10:58:18.402Z,0.10
2022-09-03T11:01:14.634Z,0.10
2022-09-03T11:04:40.640Z,0.17
2022-09-03T11:07:30.409Z,0.10
2022-09-03T11:10:31.035Z,0.20
2022-09-03T11:13:26.933Z,0.10
2022-09-03T11:16:19.608Z,0.20
2022-09-03T11:19:23.257Z,0.20
2022-09-03T11:22:12.079Z,0.20
2022-09-03T11:25:01.578Z,0.13
2022-09-03T11:28:20.093Z,0.10
2022-09-03T11:31:23.626Z,0.20
2022-09-03T11:34:47.141Z,0.20
2022-09-03T11:37:45.752Z,0.23
2022-09-03T11:40:37.293Z,0.10
2022-09-03T11:43:46.220Z,0.13
2022-09-03T11:46:48.129Z,0.20
2022-09-03T11:49:50.438Z,0.20
2022-09-03T11:52:49.013Z,0.20
2022-09-03T11:55:53.593Z,0.10
2022-09-03T11:58:50.662Z,0.20
2022-09-03T12:01:18.856Z,0.20
2022-09-03T12:03:58.626Z,0.27
2022-09-03T12:06:43.260Z,0.37
2022-09-03T12:09:57.693Z,0.30
2022-09-03T12:12:46.084Z,0.40
2022-09-03T12:15:25.184Z,0.30
2022-09-03T12:18:19.372Z,0.27
2022-09-03T12:20:49.057Z,0.30
2022-09-03T12:23:28.631Z,0.30
2022-09-03T12:25:56.008Z,0.30
2022-09-03T12:28:26.240Z,0.40
2022-09-03T12:30:53.934Z,0.20
2022-09-03T12:33:23.332Z,0.30
2022-09-03T12:36:01.545Z,0.30
2022-09-03T12:38:30.228Z,0.50
2022-09-03T12:43:52.070Z,0.20
2022-09-03T12:46:33.255Z,0.30
2022-09-03T12:52:48.238Z,0.30
2022-09-03T12:55:48.416Z,0.20
2022-09-03T12:58:44.366Z,0.30
2022-09-03T13:01:47.739Z,0.30
2022-09-03T13:04:41.450Z,0.40
2022-09-03T13:07:54.610Z,0.40
2022-09-03T13:10:53.551Z,0.50
2022-09-03T13:13:48.938Z,0.30
2022-09-03T13:16:41.664Z,0.20
2022-09-03T13:20:02.332Z,0.17
2022-09-03T13:22:58.215Z,0.20
2022-09-03T13:26:06.477Z,0.30
2022-09-03T13:29:21.140Z,0.20
2022-09-03T13:32:15.266Z,0.30
2022-09-03T13:35:13.600Z,0.50
2022-09-03T13:38:09.496Z,0.40
2022-09-03T13:41:05.564Z,0.30
2022-09-03T13:44:02.176Z,0.20
2022-09-03T13:46:55.010Z,0.30
2022-09-03T13:49:52.512Z,0.40
2022-09-03T13:52:51.272Z,0.40
2022-09-03T13:55:27.550Z,0.30
2022-09-03T13:58:01.928Z,0.40
2022-09-03T14:00:43.110Z,0.20
2022-09-03T14:03:52.401Z,0.40
2022-09-03T14:07:01.599Z,0.50
2022-09-03T14:10:10.116Z,0.30
2022-09-03T14:13:05.846Z,0.50
2022-09-03T14:16:09.966Z,0.43
2022-09-03T14:19:19.880Z,0.40
2022-09-03T14:22:25.461Z,0.40
2022-09-03T14:25:34.841Z,0.30
2022-09-03T14:28:43.752Z,0.30
2022-09-03T14:31:39.996Z,0.20
2022-09-03T14:34:45.121Z,0.30
2022-09-03T14:38:05.813Z,0.40
2022-09-03T14:41:38.204Z,0.30
2022-09-03T14:44:42.859Z,0.40
2022-09-03T14:48:12.013Z,0.40
2022-09-03T14:51:50.365Z,0.40
2022-09-03T14:54:47.023Z,0.30
2022-09-03T14:57:54.889Z,0.30
2022-09-03T15:00:48.343Z,0.30
2022-09-03T15:03:47.520Z,0.40
2022-09-03T15:06:52.579Z,0.33
2022-09-03T15:10:13.721Z,0.27
2022-09-03T15:13:05.260Z,0.40
2022-09-03T15:16:21.029Z,0.40
2022-09-03T15:19:19.418Z,0.30
2022-09-03T15:22:33.717Z,0.20
2022-09-03T15:25:41.009Z,0.73
2022-09-03T15:28:43.148Z,0.40
2022-09-03T15:31:57.679Z,0.70
2022-09-03T15:35:15.742Z,0.20
2022-09-03T15:38:20.268Z,0.30
2022-09-03T15:41:07.397Z,0.50
2022-09-03T15:43:54.686Z,0.60
2022-09-03T15:47:05.312Z,0.60
2022-09-03T15:50:18.667Z,0.57
2022-09-03T15:53:19.336Z,0.93
2022-09-03T15:55:47.684Z,1.00
2022-09-03T15:58:34.401Z,0.80
2022-09-03T16:01:07.038Z,0.90
2022-09-03T16:03:56.897Z,0.60
2022-09-03T16:07:01.511Z,0.50
2022-09-03T16:10:22.827Z,0.47
2022-09-03T16:12:49.304Z,0.57
2022-09-03T16:15:23.599Z,0.50
2022-09-03T16:18:04.646Z,0.53
2022-09-03T16:20:31.627Z,0.57
2022-09-03T16:23:25.005Z,0.50
2022-09-03T16:26:13.717Z,0.40
2022-09-03T16:29:09.466Z,0.33
2022-09-03T16:31:48.289Z,0.50
2022-09-03T16:34:22.719Z,0.33
2022-09-03T16:37:01.008Z,0.40
2022-09-03T16:39:43.314Z,0.30
2022-09-03T16:42:23.207Z,0.50
2022-09-03T16:45:23.334Z,0.50
2022-09-03T16:48:14.697Z,0.60
2022-09-03T16:51:08.312Z,0.73
2022-09-03T16:54:06.237Z,0.90
2022-09-03T16:56:59.876Z,0.50
2022-09-03T16:59:32.669Z,0.57
2022-09-03T17:02:40.028Z,0.73
2022-09-03T17:05:45.679Z,0.70
2022-09-03T17:08:24.452Z,0.40
2022-09-03T17:11:28.554Z,0.70
2022-09-03T17:14:07.521Z,0.73
2022-09-03T17:16:50.535Z,0.80
2022-09-03T17:19:27.059Z,0.90
2022-09-03T17:22:02.965Z,0.60
2022-09-03T17:24:48.018Z,0.43
2022-09-03T17:27:46.577Z,0.43
2022-09-03T17:30:21.341Z,0.30
2022-09-03T17:33:46.136Z,0.47
2022-09-03T17:36:36.530Z,0.50
2022-09-03T17:39:45.003Z,0.90
2022-09-03T17:42:40.624Z,0.40
2022-09-03T17:45:33.518Z,0.60
2022-09-03T17:48:29.204Z,0.53
2022-09-03T17:51:30.240Z,0.60
2022-09-03T17:54:41.871Z,0.60
2022-09-03T17:57:28.827Z,0.60
2022-09-03T18:00:31.193Z,0.50
2022-09-03T18:03:18.364Z,0.70
2022-09-03T18:06:26.305Z,0.60
2022-09-03T18:09:19.814Z,0.40
2022-09-03T18:12:10.694Z,0.43
2022-09-03T18:15:11.135Z,0.60
2022-09-03T18:18:05.664Z,0.70
2022-09-03T18:21:22.931Z,0.90
2022-09-03T18:24:38.372Z,0.87
2022-09-03T18:27:52.354Z,0.93
2022-09-03T18:30:38.950Z,0.73
2022-09-03T18:33:24.574Z,0.70
2022-09-03T18:36:10.231Z,0.60
2022-09-03T18:38:57.279Z,0.90
2022-09-03T18:41:57.616Z,0.57
2022-09-03T18:45:20.352Z,0.73
2022-09-03T18:48:20.658Z,0.70
2022-09-03T18:51:43.052Z,0.80
2022-09-03T18:55:07.460Z,1.00
2022-09-03T18:58:16.114Z,1.30
2022-09-03T19:01:44.936Z,1.20
2022-09-03T19:05:00.188Z,1.23
2022-09-03T19:07:45.937Z,1.50
2022-09-03T19:10:41.223Z,1.40
2022-09-03T19:13:53.425Z,1.57
2022-09-03T19:17:05.973Z,1.87
2022-09-03T19:19:51.974Z,1.30
2022-09-03T19:22:53.186Z,1.57
2022-09-03T19:25:41.886Z,1.90
2022-09-03T19:28:32.593Z,2.70
2022-09-03T19:31:51.684Z,2.67
2022-09-03T19:34:55.508Z,2.13
2022-09-03T19:37:51.623Z,1.93
2022-09-03T19:40:55.374Z,2.10
2022-09-03T19:44:12.958Z,1.97
2022-09-03T19:47:18.161Z,1.20
2022-09-03T19:50:21.988Z,1.00
2022-09-03T19:53:20.726Z,0.90
2022-09-03T19:56:12.541Z,0.97
2022-09-03T19:59:04.500Z,1.10
2022-09-03T20:01:55.994Z,0.80
2022-09-03T20:04:58.413Z,0.80
2022-09-03T20:07:44.346Z,0.50
2022-09-03T20:10:24.257Z,0.90
2022-09-03T20:13:29.731Z,0.63
2022-09-03T20:16:37.445Z,0.50
2022-09-03T20:19:50.597Z,0.40
2022-09-03T20:22:49.706Z,0.60
2022-09-03T20:25:42.456Z,0.70
2022-09-03T20:28:54.512Z,0.60
2022-09-03T20:31:56.722Z,0.77
2022-09-03T20:34:53.292Z,0.90
2022-09-03T20:38:00.490Z,0.90
2022-09-03T20:41:12.813Z,1.10
2022-09-03T20:44:18.518Z,0.77
2022-09-03T20:47:21.468Z,1.00
2022-09-03T20:50:30.531Z,0.70
2022-09-03T20:53:38.696Z,1.00
2022-09-03T20:56:59.826Z,0.80
2022-09-03T20:59:52.601Z,1.20
2022-09-03T21:03:01.363Z,1.17
2022-09-03T21:05:51.109Z,1.00
2022-09-03T21:09:05.657Z,1.00
2022-09-03T21:12:11.654Z,0.80
2022-09-03T21:15:27.636Z,0.80
2022-09-03T21:18:14.644Z,0.90
2022-09-03T21:21:07.682Z,0.80
2022-09-03T21:24:01.887Z,0.70
2022-09-03T21:26:56.606Z,0.73
2022-09-03T21:29:46.907Z,1.10
2022-09-03T21:32:36.605Z,1.10
2022-09-03T21:35:31.177Z,0.67
2022-09-03T21:38:41.596Z,0.90
2022-09-03T21:41:28.393Z,0.97
2022-09-03T21:44:18.548Z,1.13
2022-09-03T21:47:20.231Z,1.07
2022-09-03T21:50:23.152Z,0.93
2022-09-03T21:53:43.132Z,1.10
2022-09-03T21:57:00.159Z,1.60
2022-09-03T22:00:05.328Z,1.20
2022-09-03T22:03:00.854Z,0.73
2022-09-03T22:06:09.444Z,0.83
2022-09-03T22:09:24.020Z,1.00
2022-09-03T22:12:33.448Z,0.70
2022-09-03T22:15:21.534Z,0.80
2022-09-03T22:18:10.037Z,0.97
2022-09-03T22:20:57.273Z,0.77
2022-09-03T22:23:54.304Z,0.90
2022-09-03T22:27:14.697Z,0.90
2022-09-03T22:30:08.154Z,1.07
2022-09-03T22:33:03.822Z,1.00
2022-09-03T22:36:16.936Z,0.80
2022-09-03T22:39:28.654Z,0.90
2022-09-03T22:42:38.049Z,1.00
2022-09-03T22:45:44.030Z,0.63
2022-09-03T22:48:50.232Z,0.90
2022-09-03T22:51:38.989Z,1.00
2022-09-03T22:54:44.273Z,0.90
2022-09-03T22:57:34.700Z,0.70
2022-09-03T23:00:29.130Z,0.80
2022-09-03T23:03:27.554Z,0.70
2022-09-03T23:06:23.504Z,0.70
2022-09-03T23:09:24.726Z,0.70
2022-09-03T23:12:20.154Z,0.80
2022-09-03T23:15:12.508Z,0.70
2022-09-03T23:18:06.401Z,0.90
2022-09-03T23:20:56.526Z,0.70
2022-09-03T23:23:51.728Z,0.90
2022-09-03T23:26:50.134Z,0.80
2022-09-03T23:30:02.798Z,0.50
2022-09-03T23:32:50.372Z,0.80
2022-09-03T23:35:37.653Z,0.60
2022-09-03T23:38:41.403Z,0.60
2022-09-03T23:41:37.551Z,0.57
2022-09-03T23:44:46.001Z,0.67
2022-09-03T23:47:53.921Z,0.80
2022-09-03T23:51:15.869Z,0.70
2022-09-03T23:54:43.853Z,0.70
2022-09-03T23:57:47.792Z,0.70
